Kentucky Observed Data For Previous 48 Hours

Caption
Day and Hour Reservoir Elevation (behind dam)* Tailwater Elevation (below dam)* Average Hourly Discharge*
1/15/2018 1 AM CST 355.50 302.69 37,938
1/15/2018 2 AM CST 355.46 302.79 37,974
1/15/2018 3 AM CST 355.48 302.79 38,062
1/15/2018 4 AM CST 355.50 302.86 38,080
1/15/2018 5 AM CST 355.43 303.21 39,093
1/15/2018 6 AM CST 355.43 304.08 58,035
1/15/2018 7 AM CST 355.40 304.24 58,494
1/15/2018 8 AM CST 355.38 304.48 58,516
1/15/2018 9 AM CST 355.38 304.58 58,215
1/15/2018 10 AM CST 355.34 304.72 58,512
1/15/2018 11 AM CST 355.28 304.72 58,645
1/15/2018 12 PM CST 355.25 304.95 58,620
1/15/2018 1 PM CST 355.33 304.13 39,659
1/15/2018 2 PM CST 355.31 304.00 38,999
1/15/2018 3 PM CST 355.33 304.08 38,949
1/15/2018 4 PM CST 355.21 304.43 40,173
1/15/2018 5 PM CST 355.17 305.18 58,513
1/15/2018 6 PM CST 355.17 305.54 58,756
1/15/2018 7 PM CST 355.12 305.45 58,735
1/15/2018 8 PM CST 355.03 305.64 58,866
1/15/2018 9 PM CST 354.96 305.83 59,161
1/15/2018 10 PM CST 354.94 305.99 59,321
1/15/2018 11 PM CST 354.87 306.10 59,419
1/16/2018 12 AM CST 354.86 306.26 59,476
1/16/2018 1 AM CST 354.80 306.36 59,645
1/16/2018 2 AM CST 354.87 306.40 59,691
1/16/2018 3 AM CST 354.87 306.51 59,772
1/16/2018 4 AM CST 354.82 306.60 59,872
1/16/2018 5 AM CST 354.85 306.79 59,910
1/16/2018 6 AM CST 354.87 306.97 59,966
1/16/2018 7 AM CST 354.86 307.11 60,148
1/16/2018 8 AM CST 354.81 307.12 60,432
1/16/2018 9 AM CST 354.82 307.28 60,548
1/16/2018 10 AM CST 354.77 307.57 60,646
1/16/2018 11 AM CST 354.76 307.63 60,411
1/16/2018 12 PM CST 354.72 307.72 60,678
1/16/2018 1 PM CST 354.74 307.73 60,978
1/16/2018 2 PM CST 354.74 307.90 61,003
1/16/2018 3 PM CST 354.76 307.95 61,181
1/16/2018 4 PM CST 354.76 308.10 61,317
1/16/2018 5 PM CST 354.76 308.11 61,341
1/16/2018 6 PM CST 354.75 308.30 61,366
1/16/2018 7 PM CST 354.71 308.39 61,575
1/16/2018 8 PM CST 354.70 308.67 61,851
1/16/2018 9 PM CST 354.64 308.68 61,885
1/16/2018 10 PM CST 354.65 308.67 61,785
1/16/2018 11 PM CST 354.66 308.77 61,914
1/17/2018 12 AM CST 354.61 308.88 62,210
1/17/2018 1 AM CST 354.64 309.04 62,492
1/17/2018 2 AM CST 354.64 309.05 62,454
1/17/2018 3 AM CST 354.61 309.12 62,476
1/17/2018 4 AM CST 354.59 309.20 62,644
1/17/2018 5 AM CST 354.60 309.39 62,720
1/17/2018 6 AM CST 354.59 309.31 63,139
1/17/2018 7 AM CST 354.60 309.44 63,331
1/17/2018 8 AM CST 354.61 309.50 63,427
1/17/2018 9 AM CST 354.61 309.51 63,585
1/17/2018 10 AM CST 354.61 309.64 63,839
1/17/2018 11 AM CST 354.60 309.79 63,908
1/17/2018 12 PM CST 354.55 309.88 64,145
1/17/2018 1 PM CST 354.58 310.03 64,149
1/17/2018 2 PM CST 354.57 310.18 64,172
1/17/2018 3 PM CST 354.56 310.10 64,371
1/17/2018 4 PM CST 354.55 310.12 64,566
1/17/2018 5 PM CST 354.54 310.24 64,574
1/17/2018 6 PM CST 354.53 310.47 64,555
1/17/2018 7 PM CST 354.51 310.61 64,333
1/17/2018 8 PM CST 354.50 310.56 64,438
1/17/2018 9 PM CST 354.46 310.66 64,712

Elevations are in feet above sea level. Discharges are in cubic feet per second and are reported at the end of the hour.